Time;durP1;ratioP1;P1;durP2;ratioP2;P2;SDS_P1;SDS_P2;PMS_P1;PMS_P2;Temp;Humidity;BMP_temperature;BMP_pressure;BME280_temperature;BME280_humidity;BME280_pressure;Samples;Min_cycle;Max_cycle;Signal;HPM_P1;HPM_P2
2022/03/16 00:00:45;;;;;;;133.93;56.83;;;;;;;5.88;48.42;95733.97;5030358;28;20251;-81
2022/03/16 00:03:12;;;;;;;124.27;55.00;;;;;;;5.76;48.99;95729.25;5024203;28;20201;-80
2022/03/16 00:05:42;;;;;;;144.87;61.47;;;;;;;5.78;48.94;95724.72;5026375;28;20199;-80
2022/03/16 00:08:11;;;;;;;140.17;62.17;;;;;;;5.69;49.67;95726.50;5023666;28;20595;-80
2022/03/16 00:10:40;;;;;;;152.30;68.43;;;;;;;5.76;49.13;95729.25;5039784;28;20277;-80
2022/03/16 00:13:08;;;;;;;198.23;79.97;;;;;;;5.71;50.13;95724.59;5037679;28;20765;-80
2022/03/16 00:15:40;;;;;;;195.87;85.20;;;;;;;5.70;49.45;95721.19;5028118;28;20201;-79
2022/03/16 00:18:09;;;;;;;187.47;80.80;;;;;;;5.70;49.80;95730.72;5020673;28;20282;-80
2022/03/16 00:20:40;;;;;;;174.17;74.30;;;;;;;5.65;49.59;95720.06;5025467;28;20604;-80
2022/03/16 00:23:09;;;;;;;178.93;73.47;;;;;;;5.68;50.29;95715.38;5027945;28;20573;-79
2022/03/16 00:25:38;;;;;;;141.70;63.33;;;;;;;5.64;49.75;95705.56;5026757;28;20203;-79
2022/03/16 00:28:09;;;;;;;132.40;58.20;;;;;;;5.50;50.26;95711.38;5020347;28;20198;-79
2022/03/16 00:30:41;;;;;;;140.10;58.90;;;;;;;5.39;50.59;95703.94;5031536;28;20197;-80
2022/03/16 00:33:11;;;;;;;132.17;59.10;;;;;;;5.36;50.66;95714.56;5033919;28;20853;-80
2022/03/16 00:35:40;;;;;;;134.20;55.43;;;;;;;5.39;51.35;95703.94;5019439;28;20549;-80
2022/03/16 00:38:09;;;;;;;119.87;55.67;;;;;;;5.35;51.25;95690.56;5024401;28;20194;-81
2022/03/16 00:40:40;;;;;;;129.50;54.57;;;;;;;5.39;50.55;95681.56;5034702;28;20288;-81
2022/03/16 00:43:08;;;;;;;132.23;54.73;;;;;;;5.38;51.09;95677.38;5027915;28;20197;-80
2022/03/16 00:45:36;;;;;;;118.60;55.90;;;;;;;5.45;50.76;95680.94;5029222;28;20281;-81
2022/03/16 00:48:07;;;;;;;139.57;57.60;;;;;;;5.47;50.75;95670.44;5040728;28;20703;-79
2022/03/16 00:50:36;;;;;;;135.37;57.60;;;;;;;5.44;50.94;95670.75;5021337;28;20198;-78
2022/03/16 00:53:06;;;;;;;143.63;59.33;;;;;;;5.47;51.03;95654.97;5026839;28;20234;-79
2022/03/16 00:55:35;;;;;;;139.67;59.60;;;;;;;5.41;50.60;95653.84;5029998;28;20746;-78
2022/03/16 00:58:04;;;;;;;138.90;57.27;;;;;;;5.42;51.09;95647.75;5019415;28;20229;-80
2022/03/16 01:00:33;;;;;;;134.20;56.27;;;;;;;5.33;51.38;95640.97;5029371;28;20201;-82
2022/03/16 01:03:01;;;;;;;129.30;57.60;;;;;;;5.36;51.55;95638.06;5033294;28;20210;-81
2022/03/16 01:05:32;;;;;;;129.53;56.87;;;;;;;5.38;51.69;95633.56;5027339;28;20247;-81
2022/03/16 01:08:00;;;;;;;129.03;58.83;;;;;;;5.35;51.48;95630.47;5019979;28;20193;-80
2022/03/16 01:10:30;;;;;;;138.37;57.20;;;;;;;5.27;52.47;95631.31;5022955;28;20252;-80
2022/03/16 01:13:07;;;;;;;154.70;59.87;;;;;;;5.27;52.33;95638.22;5018971;28;20247;-81
2022/03/16 01:15:39;;;;;;;147.67;60.57;;;;;;;5.25;51.91;95633.25;5022855;28;20322;-80
2022/03/16 01:18:10;;;;;;;138.90;59.30;;;;;;;5.21;52.57;95637.09;5023934;28;20207;-82
2022/03/16 01:20:44;;;;;;;150.47;62.03;;;;;;;5.12;52.22;95623.41;5018239;28;20649;-81
2022/03/16 01:23:16;;;;;;;173.43;69.63;;;;;;;5.13;51.43;95613.91;5022547;28;20209;-81
2022/03/16 01:25:48;;;;;;;173.87;72.37;;;;;;;5.15;51.57;95610.22;5025999;28;20208;-81
2022/03/16 01:28:17;;;;;;;186.73;72.47;;;;;;;5.09;51.77;95608.28;5036766;28;20265;-81
2022/03/16 01:30:54;;;;;;;190.97;72.60;;;;;;;5.13;51.29;95601.84;5022926;28;20276;-80
2022/03/16 01:33:23;;;;;;;175.73;69.80;;;;;;;5.15;52.16;95606.81;5032554;28;20217;-80
2022/03/16 01:35:57;;;;;;;172.63;66.97;;;;;;;5.06;51.52;95592.31;5020143;28;20209;-81
2022/03/16 01:38:28;;;;;;;152.67;64.00;;;;;;;5.15;52.04;95601.66;5029463;28;20263;-83
2022/03/16 01:40:56;;;;;;;160.10;63.50;;;;;;;5.14;51.14;95603.44;5018329;28;20200;-79
2022/03/16 01:43:24;;;;;;;159.70;59.73;;;;;;;5.21;50.87;95598.44;5025640;28;20211;-77
2022/03/16 01:45:54;;;;;;;152.30;60.97;;;;;;;5.15;51.52;95584.44;5021382;28;20277;-77
2022/03/16 01:48:24;;;;;;;142.07;60.10;;;;;;;5.16;52.38;95587.81;5022366;28;20284;-77
2022/03/16 01:50:56;;;;;;;149.00;59.13;;;;;;;5.24;51.28;95581.84;5023886;28;20201;-77
2022/03/16 01:53:27;;;;;;;139.80;58.27;;;;;;;5.21;51.63;95588.13;5032057;28;20256;-77
2022/03/16 01:55:59;;;;;;;119.97;54.03;;;;;;;5.13;52.13;95577.84;5022041;28;20732;-77
2022/03/16 01:58:28;;;;;;;129.40;52.33;;;;;;;5.22;52.07;95576.88;5022976;28;20245;-77
2022/03/16 02:00:56;;;;;;;125.70;54.43;;;;;;;5.13;52.61;95576.06;5023014;28;20203;-77
2022/03/16 02:03:24;;;;;;;134.73;53.63;;;;;;;5.09;52.66;95564.47;5027848;28;20201;-77
2022/03/16 02:05:59;;;;;;;133.37;54.57;;;;;;;5.07;53.44;95570.75;5023664;28;20223;-77
2022/03/16 02:08:30;;;;;;;128.17;54.83;;;;;;;5.06;53.10;95574.28;5020634;28;20197;-78
2022/03/16 02:11:00;;;;;;;142.47;56.03;;;;;;;5.09;53.46;95567.06;5022893;28;20195;-77
2022/03/16 02:13:29;;;;;;;138.70;56.53;;;;;;;5.08;54.30;95562.03;5025558;28;20259;-77
2022/03/16 02:15:57;;;;;;;127.57;55.30;;;;;;;5.06;54.42;95564.78;5026598;28;20197;-77
2022/03/16 02:18:28;;;;;;;126.80;55.73;;;;;;;5.14;54.56;95562.22;5023154;28;20222;-77
2022/03/16 02:21:02;;;;;;;132.13;55.80;;;;;;;5.12;54.79;95559.00;5021389;28;20701;-77
2022/03/16 02:23:35;;;;;;;133.47;55.93;;;;;;;5.09;54.25;95556.75;5022936;28;20657;-77
2022/03/16 02:26:03;;;;;;;132.93;55.20;;;;;;;5.09;54.28;95532.75;5022156;28;20196;-77
2022/03/16 02:28:31;;;;;;;134.33;54.60;;;;;;;5.13;54.03;95541.78;5022919;28;20201;-77
2022/03/16 02:31:00;;;;;;;136.47;56.00;;;;;;;5.09;54.62;95548.22;5024104;28;20577;-76
2022/03/16 02:33:30;;;;;;;134.43;55.13;;;;;;;5.15;54.13;95552.72;5021961;28;20216;-77
2022/03/16 02:36:00;;;;;;;127.70;55.40;;;;;;;5.08;54.14;95544.00;5024640;28;20201;-77
2022/03/16 02:38:28;;;;;;;130.57;54.77;;;;;;;5.02;54.89;95537.75;5023227;28;20197;-78
2022/03/16 02:41:01;;;;;;;137.87;54.90;;;;;;;5.00;54.60;95544.84;5021846;28;20632;-78
2022/03/16 02:43:30;;;;;;;137.20;56.83;;;;;;;5.06;55.35;95545.94;5018277;28;20205;-77
2022/03/16 02:46:00;;;;;;;133.63;58.30;;;;;;;5.07;55.48;95545.81;5021904;28;20288;-78
2022/03/16 02:48:32;;;;;;;152.63;63.27;;;;;;;5.12;54.32;95547.88;5022260;28;20224;-77
2022/03/16 02:51:01;;;;;;;162.50;70.67;;;;;;;5.13;54.75;95550.31;5025005;28;20232;-78
2022/03/16 02:53:32;;;;;;;135.67;58.57;;;;;;;5.05;53.73;95540.00;5022766;28;20302;-78
2022/03/16 02:56:08;;;;;;;124.70;52.70;;;;;;;5.09;54.60;95543.06;5023811;28;20267;-79
2022/03/16 02:58:37;;;;;;;111.03;51.70;;;;;;;5.05;54.12;95536.63;5019675;28;20287;-78
2022/03/16 03:01:07;;;;;;;125.50;52.83;;;;;;;5.02;54.37;95530.00;5023346;28;20291;-78
2022/03/16 03:03:35;;;;;;;109.40;51.30;;;;;;;5.07;54.27;95519.25;5023775;28;20201;-77
2022/03/16 03:06:06;;;;;;;110.73;51.47;;;;;;;5.04;54.97;95517.00;5021691;28;20198;-78
2022/03/16 03:08:40;;;;;;;117.20;53.13;;;;;;;5.00;55.40;95508.78;5017594;28;20679;-79
2022/03/16 03:11:13;;;;;;;121.27;53.77;;;;;;;4.97;55.87;95505.72;5018120;28;20688;-77
2022/03/16 03:13:42;;;;;;;116.77;52.13;;;;;;;4.97;55.80;95506.53;5019610;28;20229;-79
2022/03/16 03:16:12;;;;;;;115.17;51.97;;;;;;;5.00;55.75;95508.78;5026756;28;20200;-79
2022/03/16 03:18:43;;;;;;;116.80;52.63;;;;;;;4.99;56.09;95506.38;5029067;28;20650;-78
2022/03/16 03:21:18;;;;;;;121.13;54.43;;;;;;;4.98;55.80;95509.91;5027229;28;20193;-78
2022/03/16 03:23:49;;;;;;;126.50;54.97;;;;;;;4.99;55.04;95504.56;5019182;28;20189;-79
2022/03/16 03:26:21;;;;;;;115.27;52.40;;;;;;;5.02;56.35;95506.06;5027194;28;20813;-80
2022/03/16 03:28:51;;;;;;;109.77;50.60;;;;;;;4.98;55.52;95505.56;5024509;28;20257;-79
2022/03/16 03:31:19;;;;;;;114.70;49.90;;;;;;;4.95;55.33;95498.16;5019616;28;20197;-79
2022/03/16 03:33:56;;;;;;;110.53;49.33;;;;;;;5.00;55.47;95508.78;5023640;28;20745;-78
2022/03/16 03:36:24;;;;;;;110.53;50.07;;;;;;;4.96;55.79;95512.63;5015673;28;20221;-78
2022/03/16 03:39:01;;;;;;;116.20;52.93;;;;;;;5.01;56.05;95499.28;5021625;28;20610;-78
2022/03/16 03:41:34;;;;;;;117.73;52.17;;;;;;;4.99;56.86;95494.28;5024337;28;20234;-77
2022/03/16 03:44:02;;;;;;;126.03;54.93;;;;;;;5.01;56.83;95496.72;5025180;28;20233;-80
2022/03/16 03:46:38;;;;;;;122.50;54.93;;;;;;;4.98;57.11;95494.44;5025556;28;20201;-80
2022/03/16 03:49:11;;;;;;;131.53;56.10;;;;;;;5.02;55.39;95496.53;5024542;28;20261;-78
2022/03/16 03:51:40;;;;;;;128.83;56.53;;;;;;;5.03;56.17;95492.19;5029618;28;20196;-81
2022/03/16 03:54:10;;;;;;;138.63;58.67;;;;;;;5.03;56.42;95498.16;5031252;28;20247;-82
2022/03/16 03:56:42;;;;;;;141.27;64.03;;;;;;;5.04;55.80;95498.97;5033229;28;20236;-81
2022/03/16 03:59:14;;;;;;;154.40;66.17;;;;;;;5.08;56.83;95495.06;5025276;28;20207;-80
2022/03/16 04:01:44;;;;;;;149.93;68.80;;;;;;;5.04;57.30;95489.47;5029218;28;20198;-80
2022/03/16 04:04:14;;;;;;;149.07;66.03;;;;;;;5.05;57.78;95491.06;5026566;28;20292;-81
2022/03/16 04:06:44;;;;;;;162.80;70.90;;;;;;;4.99;57.38;95493.50;5022638;28;20199;-81
2022/03/16 04:09:16;;;;;;;170.07;78.70;;;;;;;5.02;56.50;95491.38;5024889;28;20238;-80
2022/03/16 04:11:46;;;;;;;173.07;76.93;;;;;;;5.03;56.25;95487.84;5018716;28;20189;-82
2022/03/16 04:14:18;;;;;;;173.83;73.90;;;;;;;5.11;55.33;95487.81;5022253;28;20225;-81
2022/03/16 04:16:46;;;;;;;127.13;55.87;;;;;;;5.05;56.10;95479.97;5021488;28;20205;-81
2022/03/16 04:19:17;;;;;;;119.97;51.07;;;;;;;4.99;55.10;95478.81;5022761;28;20213;-81
2022/03/16 04:21:51;;;;;;;105.13;48.20;;;;;;;4.97;55.57;95478.19;5023644;28;20224;-78
2022/03/16 04:24:22;;;;;;;120.80;51.03;;;;;;;4.86;55.37;95475.16;5025512;28;20224;-78
2022/03/16 04:26:55;;;;;;;139.37;57.63;;;;;;;4.89;56.19;95474.81;5030470;28;20201;-78
2022/03/16 04:29:23;;;;;;;130.13;59.90;;;;;;;4.95;56.83;95472.41;5026709;28;20281;-78
2022/03/16 04:31:52;;;;;;;134.47;60.00;;;;;;;4.92;56.78;95464.19;5024244;28;20634;-78
2022/03/16 04:34:21;;;;;;;141.90;59.53;;;;;;;4.86;56.48;95460.50;5027778;28;20217;-78
2022/03/16 04:36:51;;;;;;;129.27;58.23;;;;;;;4.83;57.01;95457.44;5031619;28;20679;-78
2022/03/16 04:39:19;;;;;;;130.00;58.30;;;;;;;4.90;57.41;95456.66;5025469;28;20207;-78
2022/03/16 04:41:49;;;;;;;137.37;62.27;;;;;;;4.92;57.89;95454.72;5029874;28;20204;-79
2022/03/16 04:44:21;;;;;;;149.13;66.67;;;;;;;4.91;57.63;95450.50;5025370;28;20209;-79
2022/03/16 04:46:53;;;;;;;141.50;62.97;;;;;;;4.93;57.44;95445.22;5025313;28;20194;-78
2022/03/16 04:49:25;;;;;;;148.60;65.67;;;;;;;4.91;58.73;95447.94;5026639;28;20666;-78
2022/03/16 04:51:57;;;;;;;140.00;67.00;;;;;;;4.83;59.09;95437.66;5026458;28;20252;-77
2022/03/16 04:54:27;;;;;;;157.50;66.93;;;;;;;4.80;58.50;95442.31;5023554;28;20223;-78
2022/03/16 04:56:56;;;;;;;145.23;67.67;;;;;;;4.90;58.04;95448.13;5021624;28;20233;-71
2022/03/16 04:59:26;;;;;;;150.23;69.77;;;;;;;4.86;57.79;95432.19;5023652;28;20579;-69
2022/03/16 05:02:00;;;;;;;144.43;66.27;;;;;;;4.90;58.00;95436.03;5022497;28;20197;-70
2022/03/16 05:04:29;;;;;;;153.37;63.23;;;;;;;4.95;58.34;95433.78;5024761;28;20198;-78
2022/03/16 05:07:09;;;;;;;131.57;61.17;;;;;;;5.06;57.74;95432.63;5024743;28;20208;-70
2022/03/16 05:09:40;;;;;;;135.50;61.27;;;;;;;5.11;57.58;95438.06;5024311;28;20243;-70
2022/03/16 05:12:10;;;;;;;143.37;62.77;;;;;;;5.15;57.47;95434.22;5023549;28;20204;-70
2022/03/16 05:14:40;;;;;;;117.00;57.00;;;;;;;5.13;57.03;95424.09;5024427;28;20231;-69
2022/03/16 05:17:11;;;;;;;126.03;57.70;;;;;;;5.11;57.31;95430.34;5024422;28;20196;-70
2022/03/16 05:19:43;;;;;;;127.87;59.93;;;;;;;5.14;56.60;95415.38;5022465;28;20197;-71
2022/03/16 05:22:16;;;;;;;156.17;68.90;;;;;;;5.11;57.84;95423.44;5024805;28;20203;-70
2022/03/16 05:24:48;;;;;;;134.50;63.50;;;;;;;5.08;57.95;95420.38;5022889;28;20193;-71
2022/03/16 05:27:15;;;;;;;130.47;60.63;;;;;;;5.11;57.28;95415.69;5023013;28;20638;-71
2022/03/16 05:29:43;;;;;;;130.77;60.80;;;;;;;5.21;56.63;95412.13;5004914;28;20253;-70
2022/03/16 05:32:10;;;;;;;93.70;47.77;;;;;;;5.13;56.31;95403.47;5018518;28;20201;-70
2022/03/16 05:34:39;;;;;;;97.40;46.07;;;;;;;5.08;55.95;95399.75;5023294;28;20232;-73
2022/03/16 05:37:06;;;;;;;90.17;41.60;;;;;;;5.08;56.27;95395.41;5020689;28;20282;-70
2022/03/16 05:39:35;;;;;;;84.47;39.47;;;;;;;5.00;56.43;95387.72;5023613;28;20225;-70
2022/03/16 05:42:03;;;;;;;95.00;44.63;;;;;;;4.96;57.02;95378.72;5018720;28;20602;-70
2022/03/16 05:44:30;;;;;;;107.53;42.93;;;;;;;5.19;57.12;95389.13;5023934;28;20206;-70
2022/03/16 05:47:00;;;;;;;78.17;37.00;;;;;;;5.19;56.62;95380.59;5022888;28;20198;-71
2022/03/16 05:49:28;;;;;;;98.13;43.43;;;;;;;5.24;57.30;95366.22;5022067;28;20246;-71
2022/03/16 05:51:58;;;;;;;100.33;44.80;;;;;;;5.34;57.05;95374.56;5023672;28;20280;-71
2022/03/16 05:54:26;;;;;;;106.80;45.73;;;;;;;5.32;57.45;95380.84;5021345;28;20263;-71
2022/03/16 05:56:53;;;;;;;106.87;47.60;;;;;;;5.30;58.59;95375.06;5019807;28;20228;-70
2022/03/16 05:59:21;;;;;;;111.37;47.93;;;;;;;5.27;58.42;95376.22;5022560;28;20210;-70
2022/03/16 06:01:51;;;;;;;110.30;47.80;;;;;;;5.31;58.08;95384.41;5021226;28;20664;-70
2022/03/16 06:04:21;;;;;;;123.63;49.90;;;;;;;5.38;57.97;95377.59;5023778;28;20227;-71
2022/03/16 06:06:49;;;;;;;148.30;57.83;;;;;;;5.43;58.15;95383.03;5020159;28;20198;-70
2022/03/16 06:09:19;;;;;;;160.57;57.77;;;;;;;5.56;58.12;95378.16;5021879;28;20195;-72
2022/03/16 06:11:48;;;;;;;127.63;54.13;;;;;;;5.64;58.31;95380.69;5021606;28;20240;-71
2022/03/16 06:14:15;;;;;;;128.43;50.80;;;;;;;5.68;58.74;95372.44;5020635;28;20222;-72
2022/03/16 06:16:44;;;;;;;108.27;43.07;;;;;;;5.71;57.77;95384.22;5024838;28;20569;-76
2022/03/16 06:19:13;;;;;;;101.43;39.23;;;;;;;5.68;58.05;95377.59;5020490;28;20284;-74
2022/03/16 06:21:43;;;;;;;88.07;37.77;;;;;;;5.69;57.70;95386.94;5020801;28;20203;-75
2022/03/16 06:24:12;;;;;;;93.60;37.27;;;;;;;5.71;57.92;95385.00;5019229;28;20264;-71
2022/03/16 06:26:41;;;;;;;93.00;38.60;;;;;;;5.71;58.10;95385.00;5021821;28;20201;-70
2022/03/16 06:29:10;;;;;;;83.37;37.47;;;;;;;5.73;57.85;95387.41;5001073;28;20268;-71
2022/03/16 06:32:00;;;;;;;89.37;38.97;;;;;;;5.70;58.21;95386.00;5017118;28;20208;-72
2022/03/16 06:34:33;;;;;;;80.03;38.93;;;;;;;5.67;57.87;95376.00;5025500;28;20225;-70
2022/03/16 06:37:03;;;;;;;88.07;40.00;;;;;;;5.60;58.11;95392.31;5019469;28;20207;-69
2022/03/16 06:39:31;;;;;;;89.83;39.43;;;;;;;5.67;57.31;95393.25;5019851;28;20233;-71
2022/03/16 06:41:59;;;;;;;86.97;39.17;;;;;;;5.60;57.41;95385.38;5021067;28;20198;-70
2022/03/16 06:44:28;;;;;;;87.70;38.27;;;;;;;5.61;57.90;95388.75;5020928;28;20263;-70
2022/03/16 06:46:58;;;;;;;74.80;38.37;;;;;;;5.60;57.20;95387.97;5022358;28;20723;-72
2022/03/16 06:49:26;;;;;;;80.57;38.90;;;;;;;5.60;58.11;95382.81;5022369;28;20296;-71
2022/03/16 06:52:04;;;;;;;79.33;39.03;;;;;;;5.64;57.87;95383.28;5019339;28;20272;-71
2022/03/16 06:54:39;;;;;;;86.63;40.50;;;;;;;5.63;57.29;95390.19;5021291;28;20250;-70
2022/03/16 06:57:09;;;;;;;90.33;41.57;;;;;;;5.58;57.96;95383.94;5021995;28;20234;-70
2022/03/16 06:59:37;;;;;;;95.03;42.30;;;;;;;5.64;57.61;95391.00;5023022;28;20212;-70
2022/03/16 07:02:06;;;;;;;87.10;43.40;;;;;;;5.65;57.74;95385.69;5023210;28;20209;-71
2022/03/16 07:04:35;;;;;;;105.33;43.60;;;;;;;5.62;57.50;95382.66;5022723;28;20713;-70
2022/03/16 07:07:05;;;;;;;96.53;42.70;;;;;;;5.59;57.94;95381.22;5022530;28;20231;-71
2022/03/16 07:09:39;;;;;;;95.03;42.73;;;;;;;5.59;58.85;95376.06;5021997;28;20232;-72
2022/03/16 07:12:15;;;;;;;96.37;41.90;;;;;;;5.61;58.27;95368.16;5021983;28;20203;-72
2022/03/16 07:14:45;;;;;;;118.03;42.57;;;;;;;5.63;58.48;95368.75;5021873;28;20283;-70
2022/03/16 07:17:13;;;;;;;105.67;44.50;;;;;;;5.69;59.25;95368.91;5023199;28;20233;-70
2022/03/16 07:19:50;;;;;;;100.23;42.10;;;;;;;5.88;60.44;95374.63;5021687;28;20215;-70
2022/03/16 07:22:22;;;;;;;93.27;42.60;;;;;;;5.97;61.26;95384.72;5022817;28;20205;-70
2022/03/16 07:24:53;;;;;;;103.77;42.53;;;;;;;6.09;59.96;95373.00;5020857;28;20707;-70
2022/03/16 07:27:24;;;;;;;108.80;43.47;;;;;;;6.11;57.56;95373.66;5021217;28;20231;-71
2022/03/16 07:29:52;;;;;;;95.20;41.57;;;;;;;6.10;57.99;95374.63;5021137;28;20257;-70
2022/03/16 07:32:21;;;;;;;94.77;42.60;;;;;;;6.08;57.57;95376.59;5022299;28;20207;-70
2022/03/16 07:34:57;;;;;;;96.13;41.87;;;;;;;6.08;57.64;95381.75;5024729;28;20309;-71
2022/03/16 07:37:29;;;;;;;95.97;43.07;;;;;;;6.13;57.67;95370.91;5023187;28;20234;-70
2022/03/16 07:40:03;;;;;;;88.27;43.37;;;;;;;6.08;56.53;95361.09;5023142;28;20645;-70
2022/03/16 07:42:32;;;;;;;97.27;41.53;;;;;;;6.23;56.57;95364.53;5022759;28;20675;-70
2022/03/16 07:45:01;;;;;;;114.77;48.87;;;;;;;6.25;56.33;95361.78;5023098;28;20209;-70
2022/03/16 07:47:29;;;;;;;111.43;49.80;;;;;;;6.29;56.64;95357.88;5017128;28;20257;-83
2022/03/16 07:49:59;;;;;;;118.07;50.43;;;;;;;6.33;56.25;95359.13;5025430;28;20234;-88
2022/03/16 07:52:28;;;;;;;123.40;51.17;;;;;;;6.37;56.55;95357.81;5022233;28;20285;-83
2022/03/16 07:54:58;;;;;;;106.23;49.37;;;;;;;6.46;57.30;95364.50;5034942;28;20233;-81
2022/03/16 07:57:32;;;;;;;122.50;48.87;;;;;;;6.55;56.34;95363.44;5024158;28;20226;-82
2022/03/16 07:59:59;;;;;;;99.70;44.03;;;;;;;6.59;55.65;95356.97;5021004;28;20205;-83
2022/03/16 08:02:29;;;;;;;96.33;41.20;;;;;;;6.60;55.07;95357.75;5045339;28;20206;-86
2022/03/16 08:04:58;;;;;;;93.03;43.13;;;;;;;6.54;55.75;95351.53;5031257;28;20206;-86
2022/03/16 08:07:29;;;;;;;83.10;40.67;;;;;;;6.57;55.90;95351.19;5045802;28;20203;-86
2022/03/16 08:10:00;;;;;;;98.50;44.03;;;;;;;6.64;55.05;95359.81;5018146;28;20203;-87
2022/03/16 08:12:28;;;;;;;101.40;41.97;;;;;;;6.66;55.58;95350.13;5031874;28;20202;-86
2022/03/16 08:14:56;;;;;;;91.10;41.40;;;;;;;6.77;54.94;95354.03;5019798;28;20215;-85
2022/03/16 08:17:25;;;;;;;99.60;40.93;;;;;;;6.75;54.59;95346.47;5028476;28;20278;-82
2022/03/16 08:19:53;;;;;;;93.73;39.27;;;;;;;6.69;54.88;95341.22;5024908;28;20257;-86
2022/03/16 08:22:30;;;;;;;81.73;36.90;;;;;;;6.77;54.43;95336.78;5031669;28;20652;-80
2022/03/16 08:25:05;;;;;;;87.67;38.47;;;;;;;6.80;53.98;95323.50;5029158;28;20337;-81
2022/03/16 08:27:34;;;;;;;81.93;38.30;;;;;;;6.90;54.23;95322.44;5027513;28;20198;-80
2022/03/16 08:30:11;;;;;;;86.63;37.77;;;;;;;7.09;53.82;95329.63;5024270;28;20199;-83
2022/03/16 08:32:47;;;;;;;88.80;36.53;;;;;;;7.02;53.76;95298.53;5032091;28;20281;-84
2022/03/16 08:35:14;;;;;;;78.57;35.37;;;;;;;7.14;52.90;95307.44;5021162;28;20822;-84
2022/03/16 08:37:43;;;;;;;76.13;35.57;;;;;;;7.36;52.81;95328.97;5032241;28;20199;-83
2022/03/16 08:40:15;;;;;;;84.03;34.70;;;;;;;7.45;51.89;95317.53;5029305;28;20207;-83
2022/03/16 08:42:44;;;;;;;56.77;27.63;;;;;;;7.38;50.89;95303.75;5026053;28;20194;-83
2022/03/16 08:45:14;;;;;;;41.57;19.13;;;;;;;7.57;49.18;95341.94;5023628;28;20194;-83
2022/03/16 08:47:44;;;;;;;58.83;25.57;;;;;;;7.62;48.79;95329.25;5031339;28;20199;-83
2022/03/16 08:50:14;;;;;;;56.63;25.97;;;;;;;7.63;47.47;95311.97;5032985;28;20202;-85
2022/03/16 08:52:45;;;;;;;58.17;25.03;;;;;;;7.87;47.86;95317.59;5030679;28;20562;-85
2022/03/16 08:55:20;;;;;;;58.50;23.93;;;;;;;7.93;47.41;95310.88;5021815;28;20210;-86
2022/03/16 08:57:49;;;;;;;46.27;22.93;;;;;;;8.18;47.13;95313.88;5029941;28;20206;-84
2022/03/16 09:00:18;;;;;;;49.10;22.73;;;;;;;8.27;46.62;95310.16;5027334;28;20202;-84
2022/03/16 09:02:47;;;;;;;53.97;23.27;;;;;;;8.40;46.17;95320.66;5035741;28;20256;-85
2022/03/16 09:05:17;;;;;;;49.07;22.57;;;;;;;8.43;45.68;95317.69;5028049;28;20695;-84
2022/03/16 09:07:44;;;;;;;45.00;22.87;;;;;;;8.47;45.42;95316.31;5028443;28;20248;-84
2022/03/16 09:10:13;;;;;;;50.47;22.87;;;;;;;8.57;45.31;95323.78;5029021;28;20241;-81
2022/03/16 09:12:40;;;;;;;51.93;24.53;;;;;;;8.50;45.71;95321.13;5026607;28;20643;-82
2022/03/16 09:15:08;;;;;;;59.53;26.43;;;;;;;8.48;45.58;95317.94;5026911;28;20226;-83
2022/03/16 09:17:35;;;;;;;60.63;25.80;;;;;;;8.46;45.05;95319.91;5027026;28;20204;-83
2022/03/16 09:20:03;;;;;;;57.53;25.20;;;;;;;8.45;45.41;95323.50;5025773;28;20230;-83
2022/03/16 09:22:30;;;;;;;64.27;28.40;;;;;;;8.39;45.63;95319.06;5025584;28;20274;-83
2022/03/16 09:24:57;;;;;;;59.20;26.30;;;;;;;8.42;46.53;95319.50;5025863;28;20299;-82
2022/03/16 09:27:27;;;;;;;65.70;28.30;;;;;;;8.48;46.31;95325.72;5023426;28;20283;-82
2022/03/16 09:29:55;;;;;;;61.60;29.07;;;;;;;8.57;46.39;95327.19;5024305;28;20637;-82
2022/03/16 09:32:22;;;;;;;66.63;28.73;;;;;;;8.61;45.99;95332.75;5024086;28;20199;-82
2022/03/16 09:34:51;;;;;;;59.50;26.80;;;;;;;8.63;45.70;95326.41;5024545;28;20191;-83
2022/03/16 09:37:19;;;;;;;55.73;26.90;;;;;;;8.73;45.32;95334.66;5022445;28;20730;-83
2022/03/16 09:39:47;;;;;;;68.07;28.63;;;;;;;8.75;44.94;95318.91;5023236;28;20273;-82
2022/03/16 09:42:15;;;;;;;55.83;26.43;;;;;;;8.81;44.31;95305.19;5022292;28;21008;-82
2022/03/16 09:44:47;;;;;;;63.73;28.13;;;;;;;9.06;44.14;95335.63;5025977;28;20202;-83
2022/03/16 09:47:17;;;;;;;55.03;26.83;;;;;;;9.16;43.81;95326.72;5022364;28;20199;-83
2022/03/16 09:49:46;;;;;;;52.10;27.13;;;;;;;9.22;43.69;95329.34;5023285;28;20273;-79
2022/03/16 09:52:14;;;;;;;52.90;27.97;;;;;;;9.19;43.49;95324.53;5021820;28;20199;-79
2022/03/16 09:54:42;;;;;;;58.07;29.10;;;;;;;9.07;44.26;95324.28;5022250;28;20282;-78
2022/03/16 09:57:10;;;;;;;59.23;29.87;;;;;;;9.04;44.55;95324.66;5022986;28;20239;-79
2022/03/16 09:59:40;;;;;;;64.37;29.03;;;;;;;8.95;44.75;95327.59;5020146;28;20623;-80
2022/03/16 10:02:16;;;;;;;61.60;28.83;;;;;;;8.98;45.21;95322.03;5025352;28;20195;-80
2022/03/16 10:04:47;;;;;;;57.47;28.57;;;;;;;9.03;44.73;95307.50;5021467;28;20653;-79
2022/03/16 10:07:16;;;;;;;54.97;28.40;;;;;;;9.03;45.20;95307.50;5022672;28;20195;-79
2022/03/16 10:15:18;;;;;;;65.67;28.13;;;;;;;8.94;44.34;95294.91;5025385;28;20649;-79
2022/03/16 10:17:49;;;;;;;59.03;28.53;;;;;;;8.92;44.21;95305.44;5024255;28;20231;-79
2022/03/16 10:20:26;;;;;;;63.93;27.53;;;;;;;8.82;44.41;95299.81;5021754;28;20654;-78
2022/03/16 10:23:03;;;;;;;58.47;25.43;;;;;;;8.79;43.98;95296.81;5023634;28;20230;-79
2022/03/16 10:25:35;;;;;;;50.80;24.03;;;;;;;8.78;43.50;95300.38;5030357;28;20199;-79
2022/03/16 10:28:12;;;;;;;53.80;24.70;;;;;;;8.76;43.04;95305.75;5021201;28;20187;-79
2022/03/16 10:30:55;;;;;;;55.80;25.47;;;;;;;8.79;42.91;95304.59;5022520;28;20249;-79
2022/03/16 10:33:29;;;;;;;51.10;24.83;;;;;;;8.70;43.00;95298.75;5026251;28;20202;-80
2022/03/16 10:36:07;;;;;;;53.57;24.30;;;;;;;8.63;42.92;95305.66;5021632;28;20215;-79
2022/03/16 10:38:41;;;;;;;56.40;26.07;;;;;;;8.59;43.23;95303.66;5022122;28;20227;-79
2022/03/16 10:46:52;;;;;;;61.33;28.73;;;;;;;8.76;43.71;95297.19;5023947;28;20326;-78
2022/03/16 10:49:25;;;;;;;67.53;30.27;;;;;;;8.86;43.24;95298.44;5021805;28;20211;-79
2022/03/16 10:52:05;;;;;;;72.43;32.27;;;;;;;8.80;43.01;95291.41;5021815;28;20208;-77
2022/03/16 10:54:34;;;;;;;73.27;32.10;;;;;;;8.77;43.64;95291.03;5024236;28;20218;-79
2022/03/16 10:57:05;;;;;;;68.17;32.67;;;;;;;8.77;43.40;95283.25;5021439;28;20347;-80
2022/03/16 10:59:35;;;;;;;77.43;32.13;;;;;;;8.94;43.78;95274.97;5028326;28;20193;-79
2022/03/16 11:02:05;;;;;;;65.93;31.80;;;;;;;8.81;44.67;95259.34;5026384;28;20201;-79
2022/03/16 11:04:37;;;;;;;63.10;31.00;;;;;;;8.91;45.21;95265.00;5025673;28;20195;-76
2022/03/16 11:07:06;;;;;;;70.10;30.97;;;;;;;9.03;45.66;95271.19;5026758;28;20576;-79
2022/03/16 11:09:36;;;;;;;64.37;27.53;;;;;;;9.12;43.82;95267.44;5024721;28;20206;-82
2022/03/16 11:14:52;;;;;;;66.53;28.10;;;;;;;9.13;43.87;95256.09;5026096;28;20297;-87
2022/03/16 11:17:23;;;;;;;52.57;27.30;;;;;;;9.08;43.62;95244.72;5025560;28;20646;-87
2022/03/16 11:19:56;;;;;;;68.80;26.97;;;;;;;9.30;44.18;95247.97;5028184;28;20190;-87
2022/03/16 11:22:28;;;;;;;50.97;24.43;;;;;;;9.43;43.45;95237.63;5025986;28;20715;-87
2022/03/16 11:25:01;;;;;;;49.23;23.83;;;;;;;9.50;42.67;95231.47;5019956;28;20198;-87
2022/03/16 11:27:45;;;;;;;56.07;23.80;;;;;;;9.61;42.54;95227.47;5022704;28;20281;-79
2022/03/16 11:30:25;;;;;;;49.43;22.47;;;;;;;9.84;43.83;95214.91;5024119;28;20305;-75
2022/03/16 11:32:59;;;;;;;48.10;21.90;;;;;;;9.98;42.75;95218.34;5022904;28;20199;-75
2022/03/16 11:35:34;;;;;;;52.20;21.60;;;;;;;10.22;41.70;95223.75;5021489;28;20285;-79
2022/03/16 11:38:04;;;;;;;58.30;22.17;;;;;;;10.51;41.63;95214.69;5020409;28;20201;-79
2022/03/16 11:40:32;;;;;;;38.23;19.77;;;;;;;10.71;42.11;95217.25;5020690;28;20537;-79
2022/03/16 11:43:21;;;;;;;51.93;20.33;;;;;;;10.87;40.54;95200.41;5020814;28;20720;-79
2022/03/16 11:45:54;;;;;;;43.37;21.30;;;;;;;10.91;40.27;95202.38;5019450;28;20221;-78
2022/03/16 11:48:47;;;;;;;40.63;20.60;;;;;;;11.04;40.86;95214.53;5022572;28;20201;-79